Time,TemperatureF,DewpointF,PressureIn,WindDirection,WindDirectionDegrees,WindSpeedMPH,WindSpeedGustMPH,Humidity,HourlyPrecipIn,Conditions,Clouds,dailyrainin,SolarRadiationWatts/m^2,SoftwareType,DateUTC
2013-03-23 00:03:00,33.0,19.0,-100.00,SW,234,3.0,9.0,57,0.00,,,0.00,0.000000,,2013-03-23 04:03:00,
2013-03-23 00:13:00,33.0,19.0,-100.00,SW,234,3.0,9.0,57,0.00,,,0.00,0.000000,,2013-03-23 04:13:00,
2013-03-23 00:23:00,33.0,19.0,-100.00,SW,234,3.0,9.0,57,0.00,,,0.00,0.000000,,2013-03-23 04:23:00,
2013-03-23 00:53:00,30.0,20.0,-100.00,WSW,242,4.0,6.0,67,0.00,,,0.00,0.000000,,2013-03-23 04:53:00,
2013-03-23 01:02:00,30.0,20.0,-100.00,WSW,242,4.0,6.0,67,0.00,,,0.00,0.000000,,2013-03-23 05:02:00,
2013-03-23 01:12:00,30.0,20.0,-100.00,WSW,242,4.0,6.0,67,0.00,,,0.00,0.000000,,2013-03-23 05:12:00,
2013-03-23 01:22:00,30.0,20.0,-100.00,WSW,242,4.0,6.0,67,0.00,,,0.00,0.000000,,2013-03-23 05:22:00,
2013-03-23 01:53:00,30.0,20.0,-100.00,WSW,248,4.0,6.0,67,0.00,,,0.00,0.000000,,2013-03-23 05:53:00,
2013-03-23 02:02:00,30.0,20.0,-100.00,WSW,248,4.0,6.0,67,0.00,,,0.00,0.000000,,2013-03-23 06:02:00,
2013-03-23 02:12:00,30.0,20.0,-100.00,WSW,248,4.0,6.0,67,0.00,,,0.00,0.000000,,2013-03-23 06:12:00,
2013-03-23 02:22:00,30.0,20.0,-100.00,WSW,248,4.0,6.0,67,0.00,,,0.00,0.000000,,2013-03-23 06:22:00,
2013-03-23 02:52:00,29.0,20.0,-100.00,WSW,243,4.0,6.0,68,0.00,,,0.00,0.000000,,2013-03-23 06:52:00,
2013-03-23 03:03:00,29.0,20.0,-100.00,WSW,243,4.0,6.0,68,0.00,,,0.00,0.000000,,2013-03-23 07:03:00,
2013-03-23 03:12:00,29.0,20.0,-100.00,WSW,243,4.0,6.0,68,0.00,,,0.00,0.000000,,2013-03-23 07:12:00,
2013-03-23 03:22:00,29.0,20.0,-100.00,WSW,243,4.0,6.0,68,0.00,,,0.00,0.000000,,2013-03-23 07:22:00,
2013-03-23 03:52:00,30.0,20.0,-100.00,West,273,5.0,7.0,65,0.00,,,0.00,0.000000,,2013-03-23 07:52:00,
2013-03-23 04:03:00,30.0,20.0,-100.00,West,273,5.0,7.0,65,0.00,,,0.00,0.000000,,2013-03-23 08:03:00,
2013-03-23 04:13:00,30.0,20.0,-100.00,West,273,5.0,7.0,65,0.00,,,0.00,0.000000,,2013-03-23 08:13:00,
2013-03-23 04:22:00,30.0,20.0,-100.00,West,273,5.0,7.0,65,0.00,,,0.00,0.000000,,2013-03-23 08:22:00,
2013-03-23 04:53:00,29.0,20.0,-100.00,WSW,253,4.0,6.0,69,0.00,,,0.00,0.000000,,2013-03-23 08:53:00,
2013-03-23 05:02:00,29.0,20.0,-100.00,WSW,253,4.0,6.0,69,0.00,,,0.00,0.000000,,2013-03-23 09:02:00,
2013-03-23 05:12:00,29.0,20.0,-100.00,WSW,253,4.0,6.0,69,0.00,,,0.00,0.000000,,2013-03-23 09:12:00,
2013-03-23 05:22:00,29.0,20.0,-100.00,WSW,253,4.0,6.0,69,0.00,,,0.00,0.000000,,2013-03-23 09:22:00,
2013-03-23 05:53:00,28.0,20.0,-100.00,WSW,245,4.0,6.0,72,0.00,,,0.00,0.000000,,2013-03-23 09:53:00,
2013-03-23 06:03:00,28.0,20.0,-100.00,WSW,245,4.0,6.0,72,0.00,,,0.00,0.000000,,2013-03-23 10:03:00,
2013-03-23 06:13:00,28.0,20.0,-100.00,WSW,245,4.0,6.0,72,0.00,,,0.00,0.000000,,2013-03-23 10:13:00,
2013-03-23 06:23:00,28.0,20.0,-100.00,WSW,245,4.0,6.0,72,0.00,,,0.00,0.000000,,2013-03-23 10:23:00,
2013-03-23 06:53:00,27.0,19.0,-100.00,WSW,253,0.0,6.0,72,0.00,,,0.00,0.000000,,2013-03-23 10:53:00,
2013-03-23 07:03:00,27.0,19.0,-100.00,WSW,253,0.0,6.0,72,0.00,,,0.00,0.000000,,2013-03-23 11:03:00,
2013-03-23 07:12:00,27.0,19.0,-100.00,WSW,253,0.0,6.0,72,0.00,,,0.00,0.000000,,2013-03-23 11:12:00,
2013-03-23 07:22:00,27.0,19.0,-100.00,WSW,253,0.0,6.0,72,0.00,,,0.00,0.000000,,2013-03-23 11:22:00,
2013-03-23 07:52:00,29.0,21.0,-100.00,West,271,0.0,0.0,71,0.00,,,0.00,7.000000,,2013-03-23 11:52:00,
2013-03-23 08:02:00,29.0,21.0,-100.00,West,271,0.0,0.0,71,0.00,,,0.00,7.000000,,2013-03-23 12:02:00,
2013-03-23 08:13:00,29.0,21.0,-100.00,West,271,0.0,0.0,71,0.00,,,0.00,7.000000,,2013-03-23 12:13:00,
2013-03-23 08:22:00,29.0,21.0,-100.00,West,271,0.0,0.0,71,0.00,,,0.00,7.000000,,2013-03-23 12:22:00,
2013-03-23 08:53:00,35.0,23.0,-100.00,West,276,4.0,8.0,62,0.00,,,0.00,118.000000,,2013-03-23 12:53:00,
2013-03-23 09:03:00,35.0,23.0,-100.00,West,276,4.0,8.0,62,0.00,,,0.00,118.000000,,2013-03-23 13:03:00,
2013-03-23 09:12:00,35.0,23.0,-100.00,West,276,4.0,8.0,62,0.00,,,0.00,118.000000,,2013-03-23 13:12:00,
2013-03-23 09:23:00,35.0,23.0,-100.00,West,276,4.0,8.0,62,0.00,,,0.00,118.000000,,2013-03-23 13:23:00,
2013-03-23 09:53:00,39.0,23.0,-100.00,WNW,289,7.0,13.0,53,0.00,,,0.00,308.000000,,2013-03-23 13:53:00,
2013-03-23 10:03:00,39.0,23.0,-100.00,WNW,289,7.0,13.0,53,0.00,,,0.00,308.000000,,2013-03-23 14:03:00,
2013-03-23 10:12:00,39.0,23.0,-100.00,WNW,289,7.0,13.0,53,0.00,,,0.00,308.000000,,2013-03-23 14:12:00,
2013-03-23 10:23:00,39.0,23.0,-100.00,WNW,289,7.0,13.0,53,0.00,,,0.00,308.000000,,2013-03-23 14:23:00,
2013-03-23 10:53:00,42.0,22.0,-100.00,NW,313,8.0,17.0,45,0.00,,,0.00,497.000000,,2013-03-23 14:53:00,
2013-03-23 11:04:00,42.0,22.0,-100.00,NW,313,8.0,17.0,45,0.00,,,0.00,497.000000,,2013-03-23 15:04:00,
2013-03-23 11:13:00,42.0,22.0,-100.00,NW,313,8.0,17.0,45,0.00,,,0.00,497.000000,,2013-03-23 15:13:00,
2013-03-23 11:22:00,42.0,22.0,-100.00,NW,313,8.0,17.0,45,0.00,,,0.00,497.000000,,2013-03-23 15:22:00,
2013-03-23 11:53:00,44.0,23.0,-100.00,NW,307,10.0,20.0,44,0.00,,,0.00,630.000000,,2013-03-23 15:53:00,
2013-03-23 12:03:00,44.0,23.0,-100.00,NW,307,10.0,20.0,44,0.00,,,0.00,630.000000,,2013-03-23 16:03:00,
2013-03-23 12:13:00,44.0,23.0,-100.00,NW,307,10.0,20.0,44,0.00,,,0.00,630.000000,,2013-03-23 16:13:00,
2013-03-23 12:23:00,44.0,23.0,-100.00,NW,307,10.0,20.0,44,0.00,,,0.00,630.000000,,2013-03-23 16:23:00,
2013-03-23 12:54:00,46.0,24.0,-100.00,WNW,288,12.0,21.0,41,0.00,,,0.00,746.000000,,2013-03-23 16:54:00,
2013-03-23 13:03:00,46.0,24.0,-100.00,WNW,288,12.0,21.0,41,0.00,,,0.00,746.000000,,2013-03-23 17:03:00,
2013-03-23 13:12:00,46.0,24.0,-100.00,WNW,288,12.0,21.0,41,0.00,,,0.00,746.000000,,2013-03-23 17:12:00,
2013-03-23 13:23:00,46.0,24.0,-100.00,WNW,288,12.0,21.0,41,0.00,,,0.00,746.000000,,2013-03-23 17:23:00,
2013-03-23 13:53:00,47.0,25.0,-100.00,WNW,285,13.0,22.0,41,0.00,,,0.00,709.000000,,2013-03-23 17:53:00,
2013-03-23 14:03:00,47.0,25.0,-100.00,WNW,285,13.0,22.0,41,0.00,,,0.00,709.000000,,2013-03-23 18:03:00,
2013-03-23 14:12:00,47.0,25.0,-100.00,WNW,285,13.0,22.0,41,0.00,,,0.00,709.000000,,2013-03-23 18:12:00,
2013-03-23 14:23:00,47.0,25.0,-100.00,WNW,285,13.0,22.0,41,0.00,,,0.00,709.000000,,2013-03-23 18:23:00,
2013-03-23 14:53:00,49.0,24.0,-100.00,West,280,12.0,24.0,37,0.00,,,0.00,776.000000,,2013-03-23 18:53:00,
2013-03-23 15:03:00,49.0,24.0,-100.00,West,280,12.0,24.0,37,0.00,,,0.00,776.000000,,2013-03-23 19:03:00,
2013-03-23 15:13:00,49.0,24.0,-100.00,West,280,12.0,24.0,37,0.00,,,0.00,776.000000,,2013-03-23 19:13:00,
2013-03-23 15:23:00,49.0,24.0,-100.00,West,280,12.0,24.0,37,0.00,,,0.00,776.000000,,2013-03-23 19:23:00,
2013-03-23 15:53:00,50.0,24.0,-100.00,WNW,289,11.0,26.0,36,0.00,,,0.00,733.000000,,2013-03-23 19:53:00,
2013-03-23 16:03:00,50.0,24.0,-100.00,WNW,289,11.0,26.0,36,0.00,,,0.00,733.000000,,2013-03-23 20:03:00,
2013-03-23 16:13:00,50.0,24.0,-100.00,WNW,289,11.0,26.0,36,0.00,,,0.00,733.000000,,2013-03-23 20:13:00,
2013-03-23 16:22:00,50.0,24.0,-100.00,WNW,289,11.0,26.0,36,0.00,,,0.00,733.000000,,2013-03-23 20:22:00,
2013-03-23 16:53:00,50.0,23.0,-100.00,West,273,15.0,27.0,34,0.00,,,0.00,611.000000,,2013-03-23 20:53:00,
2013-03-23 17:03:00,50.0,23.0,-100.00,West,273,15.0,27.0,34,0.00,,,0.00,611.000000,,2013-03-23 21:03:00,
2013-03-23 17:12:00,50.0,23.0,-100.00,West,273,15.0,27.0,34,0.00,,,0.00,611.000000,,2013-03-23 21:12:00,
2013-03-23 17:22:00,50.0,23.0,-100.00,West,273,15.0,27.0,34,0.00,,,0.00,611.000000,,2013-03-23 21:22:00,
2013-03-23 17:54:00,50.0,22.0,-100.00,WNW,289,12.0,25.0,33,0.00,,,0.00,423.000000,,2013-03-23 21:54:00,
2013-03-23 18:03:00,50.0,22.0,-100.00,WNW,289,12.0,25.0,33,0.00,,,0.00,423.000000,,2013-03-23 22:03:00,
2013-03-23 18:13:00,50.0,22.0,-100.00,WNW,289,12.0,25.0,33,0.00,,,0.00,423.000000,,2013-03-23 22:13:00,
2013-03-23 18:23:00,50.0,22.0,-100.00,WNW,289,12.0,25.0,33,0.00,,,0.00,423.000000,,2013-03-23 22:23:00,
2013-03-23 18:53:00,48.0,22.0,-100.00,WNW,297,8.0,23.0,35,0.00,,,0.00,227.000000,,2013-03-23 22:53:00,
2013-03-23 19:03:00,48.0,22.0,-100.00,WNW,297,8.0,23.0,35,0.00,,,0.00,227.000000,,2013-03-23 23:03:00,
2013-03-23 19:13:00,48.0,22.0,-100.00,WNW,297,8.0,23.0,35,0.00,,,0.00,227.000000,,2013-03-23 23:13:00,
2013-03-23 19:23:00,48.0,22.0,-100.00,WNW,297,8.0,23.0,35,0.00,,,0.00,227.000000,,2013-03-23 23:23:00,
2013-03-23 19:53:00,45.0,22.0,-100.00,WNW,295,5.0,14.0,40,0.00,,,0.00,30.000000,,2013-03-23 23:53:00,
2013-03-23 20:02:00,45.0,22.0,-100.00,WNW,295,5.0,14.0,40,0.00,,,0.00,30.000000,,2013-03-24 00:02:00,
2013-03-23 20:13:00,45.0,22.0,-100.00,WNW,295,5.0,14.0,40,0.00,,,0.00,30.000000,,2013-03-24 00:13:00,
2013-03-23 20:23:00,45.0,22.0,-100.00,WNW,295,5.0,14.0,40,0.00,,,0.00,30.000000,,2013-03-24 00:23:00,
2013-03-23 20:53:00,43.0,22.0,-100.00,WNW,291,4.0,11.0,43,0.00,,,0.00,0.000000,,2013-03-24 00:53:00,
2013-03-23 21:02:00,43.0,22.0,-100.00,WNW,291,4.0,11.0,43,0.00,,,0.00,0.000000,,2013-03-24 01:02:00,
2013-03-23 21:12:00,43.0,22.0,-100.00,WNW,291,4.0,11.0,43,0.00,,,0.00,0.000000,,2013-03-24 01:12:00,
2013-03-23 21:22:00,43.0,22.0,-100.00,WNW,291,4.0,11.0,43,0.00,,,0.00,0.000000,,2013-03-24 01:22:00,
2013-03-23 21:53:00,42.0,25.0,-100.00,North,351,5.0,10.0,51,0.00,,,0.00,0.000000,,2013-03-24 01:53:00,
2013-03-23 22:03:00,42.0,25.0,-100.00,North,351,5.0,10.0,51,0.00,,,0.00,0.000000,,2013-03-24 02:03:00,
2013-03-23 22:12:00,42.0,25.0,-100.00,North,351,5.0,10.0,51,0.00,,,0.00,0.000000,,2013-03-24 02:12:00,
2013-03-23 22:22:00,42.0,25.0,-100.00,North,351,5.0,10.0,51,0.00,,,0.00,0.000000,,2013-03-24 02:22:00,
2013-03-23 22:52:00,40.0,25.0,-100.00,NW,314,3.0,9.0,55,0.00,,,0.00,0.000000,,2013-03-24 02:52:00,
2013-03-23 23:03:00,40.0,25.0,-100.00,NW,314,3.0,9.0,55,0.00,,,0.00,0.000000,,2013-03-24 03:03:00,
2013-03-23 23:13:00,40.0,25.0,-100.00,NW,314,3.0,9.0,55,0.00,,,0.00,0.000000,,2013-03-24 03:13:00,
2013-03-23 23:23:00,40.0,25.0,-100.00,NW,314,3.0,9.0,55,0.00,,,0.00,0.000000,,2013-03-24 03:23:00,
2013-03-23 23:53:00,39.0,21.0,-100.00,WNW,296,4.0,7.0,49,0.00,,,0.00,0.000000,,2013-03-24 03:53:00,